createdAt,value
2023-04-03T00:00:25.860Z,3.13
2023-04-03T00:02:52.568Z,2.75
2023-04-03T00:05:19.172Z,2.92
2023-04-03T00:07:45.705Z,2.15
2023-04-03T00:10:12.792Z,3.15
2023-04-03T00:12:39.379Z,3.55
2023-04-03T00:15:06.385Z,3.63
2023-04-03T00:17:33.085Z,3.08
2023-04-03T00:19:59.884Z,2.65
2023-04-03T00:22:27.638Z,6.00
2023-04-03T00:24:54.206Z,2.95
2023-04-03T00:27:20.809Z,2.65
2023-04-03T00:29:47.400Z,3.20
2023-04-03T00:32:14.071Z,2.78
2023-04-03T00:34:40.675Z,2.53
2023-04-03T00:37:07.202Z,3.15
2023-04-03T00:39:33.745Z,2.50
2023-04-03T00:42:00.271Z,2.97
2023-04-03T00:44:36.096Z,3.08
2023-04-03T00:47:03.215Z,2.90
2023-04-03T00:49:29.748Z,2.53
2023-04-03T00:51:56.595Z,3.10
2023-04-03T00:54:23.087Z,2.28
2023-04-03T00:56:50.315Z,3.03
2023-04-03T00:59:22.223Z,2.60
2023-04-03T01:01:49.242Z,2.28
2023-04-03T01:04:32.278Z,2.17
2023-04-03T01:07:01.724Z,3.72
2023-04-03T01:09:28.841Z,2.08
2023-04-03T01:11:55.659Z,2.78
2023-04-03T01:14:22.427Z,3.45
2023-04-03T01:16:55.545Z,3.13
2023-04-03T01:19:22.455Z,3.53
2023-04-03T01:21:55.252Z,3.35
2023-04-03T01:24:31.107Z,2.05
2023-04-03T01:26:57.653Z,2.78
2023-04-03T01:29:24.214Z,2.42
2023-04-03T01:31:58.367Z,2.38
2023-04-03T01:34:25.375Z,2.60
2023-04-03T01:36:53.044Z,2.42
2023-04-03T01:39:20.984Z,2.00
2023-04-03T01:41:48.030Z,2.88
2023-04-03T01:44:21.294Z,3.22
2023-04-03T01:46:48.661Z,2.53
2023-04-03T01:49:15.338Z,2.83
2023-04-03T01:51:41.887Z,2.47
2023-04-03T01:54:08.720Z,2.78
2023-04-03T01:56:35.428Z,1.45
2023-04-03T01:59:02.034Z,2.67
2023-04-03T02:01:28.899Z,2.47
2023-04-03T02:03:55.667Z,2.78
2023-04-03T02:06:22.255Z,2.15
2023-04-03T02:08:48.804Z,2.40
2023-04-03T02:11:15.349Z,2.30
2023-04-03T02:13:41.915Z,2.83
2023-04-03T02:16:10.785Z,3.28
2023-04-03T02:18:37.498Z,2.42
2023-04-03T02:21:04.181Z,3.15
2023-04-03T02:23:30.864Z,2.28
2023-04-03T02:26:11.115Z,2.25
2023-04-03T02:28:37.908Z,3.40
2023-04-03T02:31:04.870Z,2.75
2023-04-03T02:33:31.846Z,2.60
2023-04-03T02:35:58.826Z,2.60
2023-04-03T02:38:25.389Z,2.00
2023-04-03T02:40:52.902Z,1.80
2023-04-03T02:43:19.499Z,1.63
2023-04-03T02:45:46.342Z,3.10
2023-04-03T02:48:13.306Z,3.20
2023-04-03T02:50:39.885Z,1.58
2023-04-03T02:53:06.464Z,2.65
2023-04-03T02:55:33.219Z,2.17
2023-04-03T02:57:59.891Z,1.63
2023-04-03T03:00:26.572Z,3.47
2023-04-03T03:02:53.211Z,3.15
2023-04-03T03:05:20.048Z,1.92
2023-04-03T03:07:46.719Z,2.47
2023-04-03T03:10:13.276Z,1.95
2023-04-03T03:12:39.794Z,2.35
2023-04-03T03:15:08.460Z,2.28
2023-04-03T03:17:35.316Z,2.67
2023-04-03T03:20:01.903Z,2.33
2023-04-03T03:22:31.081Z,2.03
2023-04-03T03:24:58.353Z,1.85
2023-04-03T03:27:25.616Z,2.33
2023-04-03T03:29:52.191Z,2.03
2023-04-03T03:32:18.973Z,1.80
2023-04-03T03:34:45.687Z,2.40
2023-04-03T03:37:12.234Z,2.78
2023-04-03T03:39:38.872Z,2.03
2023-04-03T03:42:05.485Z,2.67
2023-04-03T03:44:32.161Z,2.53
2023-04-03T03:46:58.894Z,2.90
2023-04-03T03:49:25.768Z,1.70
2023-04-03T03:51:52.739Z,2.55
2023-04-03T03:54:19.419Z,2.35
2023-04-03T03:56:46.127Z,1.77
2023-04-03T03:59:13.528Z,1.90
2023-04-03T04:01:40.944Z,2.20
2023-04-03T04:04:08.225Z,2.95
2023-04-03T04:06:34.949Z,2.35
2023-04-03T04:09:04.653Z,2.50
2023-04-03T04:11:31.362Z,2.05
2023-04-03T04:13:58.081Z,1.58
2023-04-03T04:16:27.508Z,2.92
2023-04-03T04:18:56.067Z,2.67
2023-04-03T04:21:23.841Z,1.63
2023-04-03T04:23:52.717Z,1.83
2023-04-03T04:26:21.162Z,2.15
2023-04-03T04:28:47.993Z,2.08
2023-04-03T04:31:15.349Z,1.95
2023-04-03T04:33:41.998Z,2.70
2023-04-03T04:36:11.781Z,2.85
2023-04-03T04:38:39.419Z,1.65
2023-04-03T04:41:06.055Z,1.88
2023-04-03T04:43:32.861Z,3.30
2023-04-03T04:46:04.149Z,2.03
2023-04-03T04:48:34.263Z,2.70
2023-04-03T04:51:01.537Z,2.03
2023-04-03T04:53:28.798Z,1.73
2023-04-03T04:55:55.596Z,1.63
2023-04-03T04:58:22.517Z,2.13
2023-04-03T05:00:49.167Z,2.25
2023-04-03T05:03:16.482Z,2.35
2023-04-03T05:05:43.990Z,1.38
2023-04-03T05:08:10.867Z,2.45
2023-04-03T05:10:41.751Z,3.13
2023-04-03T05:13:08.515Z,3.08
2023-04-03T05:15:35.503Z,2.78
2023-04-03T05:18:03.378Z,1.98
2023-04-03T05:20:30.186Z,2.85
2023-04-03T05:22:56.806Z,2.38
2023-04-03T05:25:23.361Z,1.95
2023-04-03T05:27:53.344Z,2.22
2023-04-03T05:30:20.117Z,2.85
2023-04-03T05:32:47.632Z,3.03
2023-04-03T05:35:30.065Z,1.80
2023-04-03T05:37:59.251Z,1.85
2023-04-03T05:40:26.592Z,2.83
2023-04-03T05:42:55.794Z,3.88
2023-04-03T05:45:24.705Z,2.25
2023-04-03T05:47:51.695Z,2.25
2023-04-03T05:50:18.367Z,3.40
2023-04-03T05:52:45.754Z,3.22
2023-04-03T05:55:13.436Z,2.00
2023-04-03T05:57:40.429Z,2.20
2023-04-03T06:00:08.195Z,2.33
2023-04-03T06:02:40.863Z,2.58
2023-04-03T06:05:12.523Z,2.80
2023-04-03T06:07:39.133Z,4.18
2023-04-03T06:10:06.461Z,3.35
2023-04-03T06:12:33.179Z,2.95
2023-04-03T06:14:59.824Z,3.78
2023-04-03T06:17:28.051Z,1.73
2023-04-03T06:19:54.775Z,2.92
2023-04-03T06:22:22.221Z,1.10
2023-04-03T06:24:48.798Z,3.03
2023-04-03T06:27:15.731Z,2.17
2023-04-03T06:29:42.394Z,2.42
2023-04-03T06:32:08.958Z,2.47
2023-04-03T06:34:36.348Z,2.00
2023-04-03T06:37:03.162Z,2.22
2023-04-03T06:39:30.308Z,1.60
2023-04-03T06:41:56.898Z,1.88
2023-04-03T06:44:35.531Z,2.60
2023-04-03T06:47:02.119Z,1.63
2023-04-03T06:49:29.848Z,2.80
2023-04-03T06:51:57.179Z,1.60
2023-04-03T06:54:24.001Z,1.92
2023-04-03T06:56:51.337Z,2.45
2023-04-03T06:59:18.057Z,2.17
2023-04-03T07:01:44.839Z,1.33
2023-04-03T07:04:11.807Z,1.70
2023-04-03T07:06:38.454Z,1.52
2023-04-03T07:09:05.052Z,1.13
2023-04-03T07:11:31.641Z,2.53
2023-04-03T07:13:58.591Z,2.00
2023-04-03T07:16:25.305Z,2.08
2023-04-03T07:18:52.089Z,2.58
2023-04-03T07:21:18.669Z,1.85
2023-04-03T07:23:46.053Z,2.40
2023-04-03T07:26:12.694Z,3.22
2023-04-03T07:28:41.136Z,1.67
2023-04-03T07:31:09.692Z,1.65
2023-04-03T07:33:36.768Z,3.15
2023-04-03T07:36:03.738Z,1.00
2023-04-03T07:38:30.401Z,1.20
2023-04-03T07:40:57.011Z,2.58
2023-04-03T07:43:25.704Z,2.72
2023-04-03T07:45:52.497Z,2.08
2023-04-03T07:48:20.143Z,4.25
2023-04-03T07:50:47.261Z,1.85
2023-04-03T07:53:13.921Z,3.30
2023-04-03T07:55:44.098Z,3.47
2023-04-03T07:58:15.666Z,1.63
2023-04-03T08:00:42.232Z,3.05
2023-04-03T08:03:11.371Z,2.72
2023-04-03T08:05:40.684Z,2.47
2023-04-03T08:08:07.889Z,3.25
2023-04-03T08:10:35.035Z,1.83
2023-04-03T08:13:02.005Z,7.32
2023-04-03T08:15:28.780Z,3.92
2023-04-03T08:17:55.840Z,1.48
2023-04-03T08:20:22.703Z,2.30
2023-04-03T08:22:49.376Z,3.80
2023-04-03T08:25:16.197Z,1.98
2023-04-03T08:27:42.777Z,2.33
2023-04-03T08:30:09.991Z,1.35
2023-04-03T08:32:37.459Z,2.38
2023-04-03T08:35:07.338Z,2.38
2023-04-03T08:37:37.047Z,3.13
2023-04-03T08:40:05.473Z,2.80
2023-04-03T08:42:45.680Z,2.95
2023-04-03T08:45:26.296Z,5.75
2023-04-03T08:47:57.527Z,8.07
2023-04-03T08:50:36.059Z,3.03
2023-04-03T08:53:03.100Z,3.83
2023-04-03T08:55:32.780Z,3.03
2023-04-03T08:58:03.280Z,3.70
2023-04-03T09:00:35.276Z,3.08
2023-04-03T09:03:01.955Z,1.88
2023-04-03T09:06:04.796Z,3.10
2023-04-03T09:08:33.007Z,1.83
2023-04-03T09:11:19.770Z,2.65
2023-04-03T09:13:57.878Z,2.22
2023-04-03T09:16:30.418Z,3.25
2023-04-03T09:19:18.790Z,2.78
2023-04-03T09:21:45.681Z,2.85
2023-04-03T09:24:14.598Z,2.85
2023-04-03T09:27:11.140Z,2.30
2023-04-03T09:29:40.512Z,3.63
2023-04-03T09:32:29.341Z,4.45
2023-04-03T09:34:59.695Z,2.60
2023-04-03T09:37:49.490Z,1.25
2023-04-03T09:40:36.719Z,4.10
2023-04-03T09:43:23.343Z,2.92
2023-04-03T09:45:50.976Z,3.63
2023-04-03T09:48:21.904Z,3.03
2023-04-03T09:51:11.812Z,1.75
2023-04-03T09:53:40.099Z,2.08
2023-04-03T09:56:18.904Z,2.75
2023-04-03T09:58:50.925Z,2.97
2023-04-03T10:01:33.802Z,1.95
2023-04-03T10:04:19.602Z,2.90
2023-04-03T10:06:53.813Z,4.35
2023-04-03T10:09:25.015Z,4.10
2023-04-03T10:12:13.245Z,2.30
2023-04-03T10:14:41.563Z,4.18
2023-04-03T10:17:35.739Z,3.25
2023-04-03T10:20:22.303Z,2.60
2023-04-03T10:23:12.132Z,4.82
2023-04-03T10:25:50.150Z,5.85
2023-04-03T10:28:33.164Z,2.50
2023-04-03T10:31:08.463Z,4.50
2023-04-03T10:33:54.361Z,3.33
2023-04-03T10:36:26.589Z,3.30
2023-04-03T10:39:04.359Z,2.47
2023-04-03T10:42:17.621Z,2.05
2023-04-03T10:44:56.585Z,2.95
2023-04-03T10:47:38.035Z,2.90
2023-04-03T10:50:14.257Z,2.85
2023-04-03T10:52:43.965Z,3.42
2023-04-03T10:55:16.652Z,2.15
2023-04-03T10:57:43.620Z,2.97
2023-04-03T11:00:21.153Z,4.90
2023-04-03T11:03:04.968Z,2.70
2023-04-03T11:05:44.844Z,3.10
2023-04-03T11:08:35.347Z,2.58
2023-04-03T11:11:07.021Z,2.40
2023-04-03T11:13:43.687Z,3.00
2023-04-03T11:16:10.485Z,2.30
2023-04-03T11:18:49.985Z,2.33
2023-04-03T11:21:42.062Z,2.78
2023-04-03T11:24:17.024Z,2.45
2023-04-03T11:26:43.630Z,3.33
2023-04-03T11:29:20.734Z,2.08
2023-04-03T11:32:19.468Z,2.53
2023-04-03T11:34:47.311Z,2.35
2023-04-03T11:37:24.252Z,3.15
2023-04-03T11:39:57.684Z,1.83
2023-04-03T11:42:59.882Z,1.42
2023-04-03T11:45:26.371Z,1.80
2023-04-03T11:47:57.398Z,2.50
2023-04-03T11:50:36.201Z,1.95
2023-04-03T11:53:07.363Z,4.05
2023-04-03T11:55:34.013Z,1.65
2023-04-03T11:58:00.679Z,2.72
2023-04-03T12:00:50.754Z,2.53
2023-04-03T12:03:26.707Z,1.90
2023-04-03T12:06:05.863Z,2.58
2023-04-03T12:08:44.485Z,2.42
2023-04-03T12:11:11.408Z,1.98
2023-04-03T12:13:50.411Z,2.45
2023-04-03T12:16:27.426Z,3.85
2023-04-03T12:18:54.087Z,4.90
2023-04-03T12:21:30.466Z,3.13
2023-04-03T12:24:13.727Z,2.92
2023-04-03T12:29:22.787Z,3.67
2023-04-03T12:32:04.897Z,3.47
2023-04-03T12:34:34.349Z,3.58
2023-04-03T12:37:13.720Z,4.25
2023-04-03T12:39:52.087Z,3.28
2023-04-03T12:42:43.664Z,4.40
2023-04-03T12:45:16.204Z,2.92
2023-04-03T12:47:43.601Z,4.75
2023-04-03T12:50:31.374Z,3.22
2023-04-03T12:53:03.841Z,5.88
2023-04-03T12:55:30.610Z,3.65
2023-04-03T12:57:57.279Z,4.90
2023-04-03T13:00:33.286Z,5.15
2023-04-03T13:03:00.925Z,10.02
2023-04-03T13:05:27.706Z,188.57
2023-04-03T13:07:59.149Z,147.45
2023-04-03T13:10:25.946Z,36.10
2023-04-03T13:12:57.860Z,44.90
2023-04-03T13:15:30.306Z,292.35
2023-04-03T13:17:57.595Z,133.50
2023-04-03T13:20:29.572Z,111.80
2023-04-03T13:23:06.662Z,98.00
2023-04-03T13:25:34.921Z,96.55
2023-04-03T13:28:12.654Z,79.45
2023-04-03T13:30:41.322Z,73.88
2023-04-03T13:33:21.548Z,76.13
2023-04-03T13:35:48.268Z,78.28
2023-04-03T13:38:17.809Z,79.00
2023-04-03T13:40:54.942Z,73.97
2023-04-03T13:43:26.429Z,72.40
2023-04-03T13:46:02.474Z,64.95
2023-04-03T13:48:35.391Z,62.83
2023-04-03T13:51:16.021Z,63.03
2023-04-03T13:53:45.285Z,58.55
2023-04-03T13:56:27.495Z,57.05
2023-04-03T13:59:06.776Z,52.30
2023-04-03T14:01:56.152Z,51.22
2023-04-03T14:04:28.850Z,51.55
2023-04-03T14:06:55.659Z,53.13
2023-04-03T14:09:22.945Z,53.35
2023-04-03T14:11:51.661Z,51.80
2023-04-03T14:14:23.626Z,46.78
2023-04-03T14:16:56.483Z,44.15
2023-04-03T14:21:51.720Z,45.58
2023-04-03T14:24:18.272Z,40.80
2023-04-03T14:26:45.003Z,38.58
2023-04-03T14:29:12.282Z,39.88
2023-04-03T14:31:39.222Z,31.10
2023-04-03T14:34:05.941Z,32.60
2023-04-03T14:36:32.894Z,27.33
2023-04-03T14:39:00.282Z,28.83
2023-04-03T14:41:30.098Z,25.40
2023-04-03T14:43:56.739Z,28.63
2023-04-03T14:46:48.230Z,25.92
2023-04-03T14:49:22.392Z,26.45
2023-04-03T14:51:48.992Z,24.40
2023-04-03T14:54:17.600Z,25.58
2023-04-03T14:56:45.662Z,21.92
2023-04-03T14:59:12.958Z,25.55
2023-04-03T15:01:42.395Z,23.17
2023-04-03T15:04:20.164Z,25.65
2023-04-03T15:06:47.327Z,22.40
2023-04-03T15:09:25.911Z,26.15
2023-04-03T15:11:53.075Z,23.05
2023-04-03T15:14:29.903Z,18.05
2023-04-03T15:17:07.210Z,24.58
2023-04-03T15:19:38.886Z,18.67
2023-04-03T15:22:05.591Z,20.60
2023-04-03T15:24:32.215Z,22.20
2023-04-03T15:26:58.787Z,16.65
2023-04-03T15:29:25.357Z,12.13
2023-04-03T15:31:54.572Z,11.15
2023-04-03T15:34:22.780Z,13.85
2023-04-03T15:36:51.089Z,14.32
2023-04-03T15:39:17.848Z,15.55
2023-04-03T15:41:45.211Z,12.18
2023-04-03T15:44:13.119Z,14.35
2023-04-03T15:46:39.923Z,13.10
2023-04-03T15:49:06.700Z,11.27
2023-04-03T15:51:33.343Z,13.50
2023-04-03T15:53:59.982Z,14.85
2023-04-03T15:56:26.580Z,12.93
2023-04-03T15:58:53.107Z,12.38
2023-04-03T16:01:19.762Z,16.25
2023-04-03T16:03:46.667Z,16.85
2023-04-03T16:06:14.789Z,11.63
2023-04-03T16:08:41.582Z,11.98
2023-04-03T16:11:08.220Z,14.05
2023-04-03T16:13:36.013Z,10.82
2023-04-03T16:16:02.876Z,14.30
2023-04-03T16:18:29.653Z,16.42
2023-04-03T16:20:56.459Z,14.48
2023-04-03T16:23:23.441Z,14.60
2023-04-03T16:25:50.760Z,12.73
2023-04-03T16:28:18.337Z,17.17
2023-04-03T16:30:45.717Z,14.45
2023-04-03T16:33:12.491Z,23.48
2023-04-03T16:35:39.590Z,68.57
2023-04-03T16:38:06.534Z,26.15
2023-04-03T16:40:34.765Z,26.27
2023-04-03T16:43:04.306Z,20.55
2023-04-03T16:45:31.091Z,19.92
2023-04-03T16:47:57.811Z,19.23
2023-04-03T16:50:24.571Z,17.65
2023-04-03T16:52:51.307Z,15.48
2023-04-03T16:55:18.153Z,19.95
2023-04-03T16:57:44.857Z,19.65
2023-04-03T17:00:12.035Z,18.75
2023-04-03T17:02:40.347Z,17.38
2023-04-03T17:05:07.714Z,21.27
2023-04-03T17:07:34.338Z,19.17
2023-04-03T17:10:01.094Z,19.05
2023-04-03T17:12:27.764Z,13.88
2023-04-03T17:14:54.289Z,13.13
2023-04-03T17:17:22.841Z,15.85
2023-04-03T17:19:49.611Z,7.63
2023-04-03T17:22:17.588Z,11.07
2023-04-03T17:24:44.867Z,8.90
2023-04-03T17:27:11.664Z,12.15
2023-04-03T17:29:38.357Z,10.13
2023-04-03T17:32:05.112Z,9.05
2023-04-03T17:34:33.580Z,10.32
2023-04-03T17:37:00.329Z,10.60
2023-04-03T17:39:27.083Z,11.57
2023-04-03T17:41:55.045Z,11.80
2023-04-03T17:44:22.174Z,9.93
2023-04-03T17:46:51.825Z,9.18
2023-04-03T17:49:22.500Z,11.57
2023-04-03T17:51:49.582Z,8.75
2023-04-03T17:54:16.970Z,9.95
2023-04-03T17:56:48.069Z,11.70
2023-04-03T17:59:16.598Z,11.85
2023-04-03T18:01:44.457Z,10.00
2023-04-03T18:04:11.261Z,10.98
2023-04-03T18:06:45.752Z,10.18
2023-04-03T18:09:17.751Z,10.07
2023-04-03T18:11:44.917Z,10.57
2023-04-03T18:14:12.105Z,9.95
2023-04-03T18:16:38.980Z,9.40
2023-04-03T18:19:21.928Z,10.43
2023-04-03T18:21:52.306Z,10.02
2023-04-03T18:24:19.604Z,9.32
2023-04-03T18:26:47.595Z,9.43
2023-04-03T18:29:14.299Z,9.13
2023-04-03T18:31:41.821Z,8.07
2023-04-03T18:34:08.466Z,9.73
2023-04-03T18:36:35.789Z,10.45
2023-04-03T18:39:03.814Z,9.75
2023-04-03T18:41:31.986Z,10.88
2023-04-03T18:43:59.632Z,7.65
2023-04-03T18:46:28.506Z,8.60
2023-04-03T18:48:56.296Z,8.30
2023-04-03T18:51:23.580Z,9.30
2023-04-03T18:53:50.501Z,8.68
2023-04-03T18:56:17.362Z,7.63
2023-04-03T18:58:44.207Z,10.00
2023-04-03T19:01:11.070Z,9.68
2023-04-03T19:03:38.007Z,10.00
2023-04-03T19:06:05.189Z,8.88
2023-04-03T19:08:31.860Z,7.32
2023-04-03T19:10:58.644Z,9.05
2023-04-03T19:13:31.043Z,7.75
2023-04-03T19:15:59.286Z,9.30
2023-04-03T19:18:27.673Z,6.72
2023-04-03T19:20:54.751Z,8.93
2023-04-03T19:23:26.113Z,8.27
2023-04-03T19:26:00.894Z,7.20
2023-04-03T19:28:27.674Z,7.82
2023-04-03T19:30:58.149Z,7.53
2023-04-03T19:33:25.130Z,9.02
2023-04-03T19:35:52.009Z,6.68
2023-04-03T19:38:18.744Z,6.65
2023-04-03T19:40:45.678Z,7.95
2023-04-03T19:43:13.216Z,7.93
2023-04-03T19:45:40.466Z,8.07
2023-04-03T19:48:07.462Z,8.85
2023-04-03T19:50:34.305Z,7.57
2023-04-03T19:53:01.768Z,7.78
2023-04-03T19:55:31.788Z,7.25
2023-04-03T19:57:59.693Z,7.82
2023-04-03T20:00:26.696Z,7.93
2023-04-03T20:02:53.489Z,7.60
2023-04-03T20:05:20.905Z,8.40
2023-04-03T20:07:48.640Z,5.93
2023-04-03T20:10:15.630Z,9.38
2023-04-03T20:12:42.775Z,10.13
2023-04-03T20:15:10.419Z,6.10
2023-04-03T20:17:37.111Z,6.82
2023-04-03T20:20:04.487Z,9.25
2023-04-03T20:22:32.302Z,8.13
2023-04-03T20:25:05.986Z,7.38
2023-04-03T20:27:33.757Z,10.10
2023-04-03T20:30:02.980Z,7.68
2023-04-03T20:32:30.457Z,5.82
2023-04-03T20:35:03.288Z,7.85
2023-04-03T20:37:30.547Z,6.75
2023-04-03T20:39:57.212Z,7.13
2023-04-03T20:42:23.775Z,10.95
2023-04-03T20:44:50.886Z,6.97
2023-04-03T20:47:17.588Z,7.70
2023-04-03T20:49:45.097Z,5.85
2023-04-03T20:52:11.836Z,6.57
2023-04-03T20:54:39.546Z,8.18
2023-04-03T20:57:06.209Z,5.43
2023-04-03T20:59:34.047Z,6.00
2023-04-03T21:02:00.925Z,7.95
2023-04-03T21:04:45.207Z,6.53
2023-04-03T21:07:49.458Z,7.45
2023-04-03T21:10:54.108Z,6.97
2023-04-03T21:13:57.947Z,7.22
2023-04-03T21:16:24.599Z,7.78
2023-04-03T21:18:59.344Z,6.55
2023-04-03T21:21:27.986Z,6.78
2023-04-03T21:23:54.887Z,6.80
2023-04-03T21:26:21.804Z,6.63
2023-04-03T21:28:50.268Z,9.23
2023-04-03T21:31:16.984Z,6.97
2023-04-03T21:33:43.728Z,7.05
2023-04-03T21:36:10.409Z,7.88
2023-04-03T21:38:37.491Z,8.27
2023-04-03T21:41:04.187Z,8.52
2023-04-03T21:43:30.913Z,6.88
2023-04-03T21:45:58.546Z,7.15
2023-04-03T21:48:25.827Z,6.32
2023-04-03T21:50:53.720Z,9.45
2023-04-03T21:53:23.654Z,6.85
2023-04-03T21:55:54.343Z,5.97
2023-04-03T21:58:21.241Z,6.68
2023-04-03T22:00:47.889Z,6.50
2023-04-03T22:03:19.989Z,5.95
2023-04-03T22:05:46.641Z,7.00
2023-04-03T22:08:13.916Z,6.20
2023-04-03T22:10:41.496Z,6.78
2023-04-03T22:13:08.413Z,8.95
2023-04-03T22:15:43.868Z,6.72
2023-04-03T22:18:10.938Z,7.00
2023-04-03T22:20:37.945Z,5.35
2023-04-03T22:23:05.812Z,6.80
2023-04-03T22:25:32.874Z,5.10
2023-04-03T22:27:59.437Z,5.72
2023-04-03T22:30:26.257Z,6.18
2023-04-03T22:32:52.913Z,7.85
2023-04-03T22:35:19.559Z,5.90
2023-04-03T22:37:46.107Z,5.25
2023-04-03T22:40:13.596Z,6.57
2023-04-03T22:42:40.210Z,6.82
2023-04-03T22:45:07.317Z,7.05
2023-04-03T22:47:33.852Z,6.75
2023-04-03T22:50:00.410Z,4.00
2023-04-03T22:52:26.968Z,5.30
2023-04-03T22:54:53.539Z,5.82
2023-04-03T22:57:20.490Z,5.03
2023-04-03T22:59:47.192Z,6.28
2023-04-03T23:02:13.742Z,5.13
2023-04-03T23:04:40.454Z,5.90
2023-04-03T23:07:07.227Z,5.82
2023-04-03T23:09:33.824Z,6.25
2023-04-03T23:12:00.377Z,5.22
2023-04-03T23:14:26.945Z,6.50
2023-04-03T23:16:53.545Z,5.47
2023-04-03T23:19:20.884Z,6.53
2023-04-03T23:21:48.003Z,5.25
2023-04-03T23:24:15.878Z,4.75
2023-04-03T23:26:42.425Z,4.93
2023-04-03T23:29:08.995Z,5.80
2023-04-03T23:31:35.610Z,5.13
2023-04-03T23:34:02.203Z,4.93
2023-04-03T23:36:28.823Z,5.43
2023-04-03T23:38:58.514Z,4.10
2023-04-03T23:41:25.171Z,5.45
2023-04-03T23:43:51.926Z,5.05
2023-04-03T23:46:19.718Z,6.57
2023-04-03T23:48:46.377Z,4.30
2023-04-03T23:51:12.945Z,4.85
2023-04-03T23:53:39.553Z,5.68
2023-04-03T23:56:11.368Z,4.45
2023-04-03T23:58:38.189Z,4.97
